Ana Sayfa
METAR-TAF:

METAR-TAF

Havaalanları :

Zvartnots Uluslararası Havalimanı

Erivan, Ermenistan

Enlem: 40-08-50N, Boylam: 044-23-45E, yükseklik: 865 m

Güncel hava durumu gözlemi

Rapor saat 15:00 UTC de 20 dakika önce yapıldı.
Sakin rüzgar
Sıcaklık -1°C
Nem 54%
Basınç 1024 hPa
Görüş mesafesi: 6000 m

METAR: UDYZ 201500Z 00000KT 6000 NSC M01/M09 Q1024 R09/010070 NOSIG

Saat: 19:20 (15:20 UTC)

Tahmin

Rapor saat 11:25 UTC de 3 saat ve 55 dakika önce yapıldı.
Ayın 20'si saat 12 UTC'den ayın 21'si saat 12 UTC'ye kadar geçerli Tahmin
Rüzgar değişken yönden 4 kt
Görüş mesafesi: 6000 m

TAF: UDYZ 201125Z 2012/2112 VRB04KT 6000 NSC

4.000'den fazla havaalanı için hava durumu gözlemleri ve tahminleri (METAR ve TAF raporları).

Kullanılabilir istasyonlar harita üzerinde sarı ve kırmızı noktalarla gösterilir.

İstasyonun adını görmek için fareyi noktanın üzerinde gezdirin.

Sonrasında hava gözlem ve tahminlerini görmek için tıklayın.

Haritayı değiştirmek için: yaklaştırmak için siyah artı işaretli yeşil düğmeye ve uzaklaştırmak için de eksi işaretli düğmeye hızla tıklayın; bitişik haritalar için yeşil okları kullanın.


METAR-TAF: